Time;durP1;ratioP1;P1;durP2;ratioP2;P2;SDS_P1;SDS_P2;PMS_P1;PMS_P2;Temp;Humidity;BMP_temperature;BMP_pressure;BME280_temperature;BME280_humidity;BME280_pressure;Samples;Min_cycle;Max_cycle;Signal;HPM_P1;HPM_P2
2024/01/07 00:01:54;;;;;;;9.27;1.90;;;27.80;57.70;;;;;;5059549;28;20361;-73
2024/01/07 00:04:21;;;;;;;12.20;2.47;;;27.60;58.40;;;;;;5064217;28;20215;-71
2024/01/07 00:06:49;;;;;;;11.50;2.53;;;27.20;59.10;;;;;;5052393;28;20719;-71
2024/01/07 00:09:17;;;;;;;15.23;2.53;;;26.80;61.00;;;;;;5063250;28;20329;-72
2024/01/07 00:11:44;;;;;;;13.10;3.10;;;27.10;60.30;;;;;;5056498;28;20274;-72
2024/01/07 00:14:11;;;;;;;9.23;2.83;;;27.30;59.40;;;;;;5064849;28;20271;-71
2024/01/07 00:16:41;;;;;;;12.37;2.70;;;27.30;60.10;;;;;;5050696;28;20171;-72
2024/01/07 00:19:08;;;;;;;14.30;2.70;;;27.60;60.10;;;;;;5060054;28;20636;-72
2024/01/07 00:21:36;;;;;;;13.73;2.60;;;27.50;59.50;;;;;;5053619;28;20180;-71
2024/01/07 00:24:03;;;;;;;14.33;2.57;;;27.70;59.10;;;;;;5063909;28;20187;-70
2024/01/07 00:26:30;;;;;;;13.93;2.53;;;27.90;59.20;;;;;;5056372;28;20191;-72
2024/01/07 00:28:57;;;;;;;10.67;2.60;;;28.40;57.10;;;;;;5058580;28;20206;-72
2024/01/07 00:31:25;;;;;;;7.47;2.23;;;28.50;56.80;;;;;;5052037;28;20187;-72
2024/01/07 00:33:52;;;;;;;11.30;2.23;;;28.30;56.80;;;;;;5067012;28;20209;-72
2024/01/07 00:36:19;;;;;;;8.20;2.13;;;28.60;55.40;;;;;;5058086;28;20232;-71
2024/01/07 00:38:47;;;;;;;11.53;2.87;;;28.60;56.10;;;;;;5058848;28;20549;-72
2024/01/07 00:41:14;;;;;;;13.40;2.80;;;28.30;56.10;;;;;;5058212;28;20228;-72
2024/01/07 00:43:42;;;;;;;11.47;2.40;;;28.10;56.30;;;;;;5056096;28;20262;-72
2024/01/07 00:46:09;;;;;;;13.50;2.57;;;28.30;56.80;;;;;;5055622;28;20176;-72
2024/01/07 00:48:36;;;;;;;12.90;2.37;;;28.30;56.90;;;;;;5053279;28;20597;-72
2024/01/07 00:51:05;;;;;;;11.00;2.37;;;27.90;57.20;;;;;;5053208;28;20186;-71
2024/01/07 00:53:32;;;;;;;12.00;2.17;;;28.50;56.00;;;;;;5058843;28;20187;-72
2024/01/07 00:55:59;;;;;;;8.53;2.33;;;28.10;57.00;;;;;;5053044;28;20188;-72
2024/01/07 00:58:26;;;;;;;10.73;2.20;;;28.70;55.30;;;;;;5058037;28;20634;-71
2024/01/07 01:00:54;;;;;;;12.27;2.37;;;28.50;55.30;;;;;;5057485;28;20275;-74
2024/01/07 01:03:21;;;;;;;7.07;2.23;;;28.50;55.60;;;;;;5056797;28;20192;-71
2024/01/07 01:05:48;;;;;;;8.27;2.20;;;29.10;54.60;;;;;;5055292;28;20188;-72
2024/01/07 01:08:16;;;;;;;7.80;2.27;;;29.20;54.30;;;;;;5038853;28;20209;-72
2024/01/07 01:10:43;;;;;;;9.40;2.63;;;29.10;54.30;;;;;;5055699;28;20200;-72
2024/01/07 01:13:10;;;;;;;9.40;2.20;;;29.30;54.30;;;;;;5053464;28;20330;-72
2024/01/07 01:15:38;;;;;;;11.03;2.30;;;29.50;53.90;;;;;;5053896;28;20704;-71
2024/01/07 01:18:05;;;;;;;9.80;2.40;;;29.40;53.10;;;;;;5049970;28;20179;-71
2024/01/07 01:20:33;;;;;;;9.67;2.43;;;28.90;54.30;;;;;;5051459;28;20187;-70
2024/01/07 01:23:00;;;;;;;14.43;2.90;;;28.80;54.90;;;;;;5055180;28;20188;-72
2024/01/07 01:25:29;;;;;;;13.97;2.60;;;28.30;56.00;;;;;;5055186;28;20634;-71
2024/01/07 01:27:58;;;;;;;11.57;2.60;;;28.30;56.40;;;;;;5051449;28;20183;-70
2024/01/07 01:30:27;;;;;;;9.80;2.63;;;28.20;56.60;;;;;;5056117;28;20188;-70
2024/01/07 01:32:54;;;;;;;12.77;2.53;;;28.40;56.70;;;;;;5062896;28;20179;-71
2024/01/07 01:35:22;;;;;;;9.57;2.53;;;28.80;55.50;;;;;;5059105;28;20188;-72
2024/01/07 01:37:49;;;;;;;14.17;2.53;;;29.00;54.70;;;;;;5054944;28;20234;-70
2024/01/07 01:40:18;;;;;;;8.83;2.27;;;28.60;56.40;;;;;;5056832;28;20192;-71
2024/01/07 01:42:48;;;;;;;10.43;2.30;;;28.80;55.70;;;;;;5056229;28;20219;-72
2024/01/07 01:45:15;;;;;;;9.07;2.30;;;28.60;55.80;;;;;;5048329;28;20263;-72
2024/01/07 01:47:44;;;;;;;9.40;2.23;;;28.90;55.90;;;;;;5045980;28;20184;-73
2024/01/07 01:50:12;;;;;;;11.13;2.33;;;28.60;56.00;;;;;;5052956;28;20227;-72
2024/01/07 01:52:39;;;;;;;11.60;2.30;;;28.60;56.40;;;;;;5056989;28;20183;-71
2024/01/07 01:55:07;;;;;;;8.87;1.90;;;28.20;58.00;;;;;;5056869;28;20537;-72
2024/01/07 01:57:37;;;;;;;12.17;2.80;;;28.30;57.60;;;;;;5061568;28;20179;-71
2024/01/07 02:00:05;;;;;;;9.53;2.50;;;28.40;57.00;;;;;;5058561;28;20684;-72
2024/01/07 02:02:34;;;;;;;17.17;2.60;;;29.00;55.50;;;;;;5058857;28;20186;-72
2024/01/07 02:05:05;;;;;;;7.80;2.37;;;28.90;55.70;;;;;;5054408;28;20183;-72
2024/01/07 02:07:32;;;;;;;12.53;2.97;;;28.90;56.50;;;;;;5061613;28;20221;-71
2024/01/07 02:10:00;;;;;;;11.87;2.30;;;29.10;55.60;;;;;;5057397;28;20219;-72
2024/01/07 02:12:27;;;;;;;10.77;2.77;;;29.10;56.00;;;;;;5061705;28;20183;-72
2024/01/07 02:14:55;;;;;;;7.57;1.80;;;29.20;56.20;;;;;;5057259;28;20180;-71
2024/01/07 02:17:22;;;;;;;14.23;2.87;;;29.00;56.60;;;;;;5062585;28;20202;-73
2024/01/07 02:19:49;;;;;;;11.23;2.53;;;28.00;59.90;;;;;;5061072;28;20176;-71
2024/01/07 02:22:18;;;;;;;10.73;2.47;;;28.10;59.80;;;;;;5058894;28;20537;-71
2024/01/07 02:24:46;;;;;;;13.67;2.63;;;28.00;59.40;;;;;;5058160;28;20182;-71
2024/01/07 02:27:13;;;;;;;9.80;1.87;;;28.30;59.70;;;;;;5054217;28;20192;-71
2024/01/07 02:29:40;;;;;;;14.80;3.20;;;28.00;60.10;;;;;;5052148;28;20224;-71
2024/01/07 02:32:08;;;;;;;12.33;2.27;;;28.20;59.10;;;;;;5051929;28;20533;-69
2024/01/07 02:34:35;;;;;;;13.30;2.60;;;28.30;59.50;;;;;;5059334;28;20191;-72
2024/01/07 02:37:02;;;;;;;12.53;2.70;;;28.50;58.80;;;;;;5059621;28;20246;-71
2024/01/07 02:39:30;;;;;;;9.40;2.00;;;28.70;58.20;;;;;;5038285;28;20180;-71
2024/01/07 02:41:57;;;;;;;15.97;2.70;;;28.80;58.50;;;;;;5052130;28;20223;-71
2024/01/07 02:44:24;;;;;;;9.83;2.73;;;28.60;57.80;;;;;;5059178;28;20183;-73
2024/01/07 02:46:52;;;;;;;8.97;2.13;;;28.90;57.40;;;;;;5062521;28;20187;-70
2024/01/07 02:49:19;;;;;;;10.77;2.60;;;28.50;58.10;;;;;;5053026;28;20207;-73
2024/01/07 02:51:49;;;;;;;12.37;2.40;;;28.50;59.10;;;;;;5061912;28;20175;-70
2024/01/07 02:54:16;;;;;;;12.70;2.43;;;28.40;58.90;;;;;;5061254;28;20180;-70
2024/01/07 02:56:44;;;;;;;9.73;2.13;;;28.30;59.00;;;;;;5059768;28;20179;-71
2024/01/07 02:59:11;;;;;;;11.90;2.23;;;28.20;58.20;;;;;;5053873;28;20245;-71
2024/01/07 03:01:42;;;;;;;14.70;2.50;;;28.10;58.50;;;;;;5061002;28;20468;-72
2024/01/07 03:04:14;;;;;;;11.33;2.67;;;28.00;58.70;;;;;;5057212;28;20587;-71
2024/01/07 03:06:41;;;;;;;13.23;2.63;;;28.10;59.90;;;;;;5045155;28;20621;-71
2024/01/07 03:09:10;;;;;;;12.93;2.90;;;28.00;59.20;;;;;;5062444;28;20632;-71
2024/01/07 03:11:41;;;;;;;12.97;2.40;;;28.40;59.20;;;;;;5056687;28;20183;-72
2024/01/07 03:14:09;;;;;;;11.00;2.60;;;28.70;57.80;;;;;;5058406;28;20176;-72
2024/01/07 03:16:37;;;;;;;10.23;2.40;;;28.90;58.20;;;;;;5052284;28;20191;-71
2024/01/07 03:19:04;;;;;;;12.47;2.50;;;29.20;57.00;;;;;;5053625;28;20188;-72
2024/01/07 03:21:32;;;;;;;17.47;3.00;;;29.30;56.10;;;;;;5056330;28;20281;-71
2024/01/07 03:23:59;;;;;;;10.57;2.60;;;29.10;57.00;;;;;;5058755;28;20179;-72
2024/01/07 03:26:33;;;;;;;13.70;2.77;;;28.80;58.00;;;;;;5055876;28;20192;-72
2024/01/07 03:29:01;;;;;;;15.73;3.33;;;29.00;57.60;;;;;;5058773;28;20258;-71
2024/01/07 03:31:29;;;;;;;9.97;2.53;;;28.80;58.40;;;;;;5055126;28;20259;-71
2024/01/07 03:33:56;;;;;;;13.03;3.10;;;28.80;59.20;;;;;;5061440;28;20188;-71
2024/01/07 03:36:23;;;;;;;13.33;2.70;;;29.00;59.10;;;;;;5061168;28;20205;-71
2024/01/07 03:38:52;;;;;;;13.33;2.27;;;29.80;57.00;;;;;;5055584;28;20191;-70
2024/01/07 03:41:20;;;;;;;14.50;2.90;;;28.90;59.00;;;;;;5059108;28;20234;-72
2024/01/07 03:43:48;;;;;;;12.40;2.87;;;28.70;60.20;;;;;;5056019;28;20223;-73
2024/01/07 03:46:16;;;;;;;9.97;3.07;;;28.90;59.30;;;;;;5058039;28;20187;-72
2024/01/07 03:48:45;;;;;;;13.23;3.30;;;28.80;59.30;;;;;;5064726;28;20204;-71
2024/01/07 03:51:13;;;;;;;11.30;2.70;;;28.70;59.90;;;;;;5060501;28;20721;-72
2024/01/07 03:53:40;;;;;;;15.23;2.90;;;28.40;60.40;;;;;;5054827;28;20282;-71
2024/01/07 03:56:07;;;;;;;12.60;2.27;;;28.50;60.40;;;;;;5047586;28;20254;-71
2024/01/07 03:58:35;;;;;;;12.73;2.53;;;29.00;58.50;;;;;;5046744;28;20545;-71
2024/01/07 04:01:03;;;;;;;12.00;3.10;;;29.10;58.40;;;;;;5032714;28;20216;-72
2024/01/07 04:03:30;;;;;;;10.07;2.70;;;29.00;58.40;;;;;;5053999;28;20574;-71
2024/01/07 04:05:57;;;;;;;11.97;3.23;;;28.90;59.20;;;;;;5044423;28;20533;-72
2024/01/07 04:08:31;;;;;;;13.87;2.67;;;29.10;58.20;;;;;;5049573;28;20731;-71
2024/01/07 04:10:59;;;;;;;16.00;2.80;;;29.30;57.60;;;;;;5053576;28;20275;-72
2024/01/07 04:13:26;;;;;;;13.53;3.67;;;28.70;59.90;;;;;;5053182;28;20656;-73
2024/01/07 04:15:53;;;;;;;11.63;2.73;;;28.70;59.10;;;;;;5046381;28;20199;-72
2024/01/07 04:18:21;;;;;;;14.07;2.83;;;29.10;58.30;;;;;;5046447;28;20200;-71
2024/01/07 04:20:48;;;;;;;13.03;2.80;;;28.80;58.30;;;;;;5053629;28;20192;-72
2024/01/07 04:23:16;;;;;;;13.07;2.90;;;28.50;59.00;;;;;;5051969;28;20223;-75
2024/01/07 04:25:45;;;;;;;14.27;2.83;;;28.60;59.80;;;;;;5048323;28;20175;-73
2024/01/07 04:28:12;;;;;;;9.60;2.53;;;28.70;59.50;;;;;;5050148;28;20233;-72
2024/01/07 04:30:39;;;;;;;17.63;3.77;;;28.60;58.90;;;;;;5044095;28;20183;-72
2024/01/07 04:33:07;;;;;;;11.93;2.73;;;28.50;59.90;;;;;;5053332;28;20176;-71
2024/01/07 04:35:38;;;;;;;10.60;2.37;;;28.40;59.80;;;;;;5047420;28;20276;-71
2024/01/07 04:38:06;;;;;;;9.73;2.57;;;28.40;59.00;;;;;;5051320;28;20251;-73
2024/01/07 04:40:33;;;;;;;10.90;2.80;;;28.40;59.00;;;;;;5040328;28;20208;-71
2024/01/07 04:43:01;;;;;;;14.90;3.13;;;28.30;60.60;;;;;;5049755;28;20188;-71
2024/01/07 04:45:28;;;;;;;10.93;2.83;;;29.10;59.50;;;;;;5052936;28;20263;-71
2024/01/07 04:47:55;;;;;;;17.27;3.23;;;29.30;59.40;;;;;;5038987;28;20176;-72
2024/01/07 04:50:23;;;;;;;15.17;2.90;;;29.50;59.50;;;;;;5052798;28;20265;-72
2024/01/07 04:52:50;;;;;;;17.67;3.00;;;29.70;59.50;;;;;;5049856;28;20635;-71
2024/01/07 04:55:18;;;;;;;18.87;3.47;;;29.40;60.70;;;;;;5047025;28;20235;-73
2024/01/07 04:57:45;;;;;;;15.15;2.97;;;29.60;59.80;;;;;;5048535;28;20188;-72
2024/01/07 05:00:13;;;;;;;17.80;3.28;;;29.80;59.90;;;;;;5049447;28;20195;-72
2024/01/07 05:02:40;;;;;;;9.70;2.83;;;29.50;60.40;;;;;;5047159;28;20242;-72
2024/01/07 05:05:09;;;;;;;12.43;3.10;;;29.70;59.70;;;;;;5051175;28;20271;-73
2024/01/07 05:07:37;;;;;;;11.77;2.58;;;29.30;60.40;;;;;;5052971;28;20563;-73
2024/01/07 05:10:05;;;;;;;11.73;3.03;;;29.70;59.60;;;;;;5048160;28;20264;-73
2024/01/07 05:12:37;;;;;;;16.25;3.22;;;29.70;59.40;;;;;;5045184;28;20196;-72
2024/01/07 05:15:05;;;;;;;15.30;3.33;;;29.20;61.00;;;;;;5049099;28;20310;-72
2024/01/07 05:17:32;;;;;;;14.07;2.93;;;28.90;61.40;;;;;;5047552;28;20241;-70
2024/01/07 05:20:00;;;;;;;14.13;3.03;;;29.20;60.90;;;;;;5046935;28;20287;-72
2024/01/07 05:22:27;;;;;;;7.33;2.27;;;29.80;58.70;;;;;;5053090;28;20635;-72
2024/01/07 05:24:54;;;;;;;15.50;2.90;;;29.70;57.60;;;;;;5050169;28;20199;-71
2024/01/07 05:27:22;;;;;;;14.02;2.72;;;29.60;57.60;;;;;;5030259;28;20180;-72
2024/01/07 05:29:49;;;;;;;15.30;3.20;;;29.80;57.70;;;;;;5050270;28;20207;-72
2024/01/07 05:32:17;;;;;;;11.10;2.40;;;29.90;56.50;;;;;;5051789;28;20188;-71
2024/01/07 05:34:44;;;;;;;12.40;2.75;;;29.60;56.80;;;;;;5054104;28;20183;-72
2024/01/07 05:37:12;;;;;;;10.07;2.78;;;30.10;55.90;;;;;;5050529;28;20195;-72
2024/01/07 05:39:39;;;;;;;15.13;3.13;;;30.70;55.20;;;;;;5043684;28;20179;-72
2024/01/07 05:42:06;;;;;;;15.65;2.65;;;31.10;54.60;;;;;;5061417;28;20246;-73
2024/01/07 05:44:34;;;;;;;13.48;3.00;;;30.80;54.90;;;;;;5060807;28;20188;-73
2024/01/07 05:47:01;;;;;;;16.75;3.33;;;30.30;56.70;;;;;;5053794;28;20545;-71
2024/01/07 05:49:29;;;;;;;16.13;3.08;;;30.10;57.10;;;;;;5050123;28;20208;-70
2024/01/07 05:51:56;;;;;;;13.18;2.60;;;29.70;57.60;;;;;;5062738;28;20179;-73
2024/01/07 05:54:23;;;;;;;6.93;2.33;;;30.40;57.00;;;;;;5062285;28;20637;-72
2024/01/07 05:56:51;;;;;;;17.60;2.95;;;30.30;55.20;;;;;;5065825;28;20174;-70
2024/01/07 05:59:19;;;;;;;15.73;2.87;;;29.70;56.10;;;;;;5054750;28;20232;-69
2024/01/07 06:01:49;;;;;;;10.27;2.17;;;29.80;56.00;;;;;;5050640;28;20183;-73
2024/01/07 06:04:20;;;;;;;11.00;2.50;;;29.50;57.40;;;;;;5062364;28;20191;-71
2024/01/07 06:06:47;;;;;;;12.30;2.50;;;29.80;55.10;;;;;;5048957;28;20177;-72
2024/01/07 06:09:15;;;;;;;10.10;2.63;;;29.80;55.70;;;;;;5059916;28;20219;-73
2024/01/07 06:11:42;;;;;;;13.68;3.03;;;29.60;56.70;;;;;;5053963;28;20180;-73
2024/01/07 06:14:10;;;;;;;13.73;2.50;;;29.90;56.20;;;;;;5054728;28;20198;-71
2024/01/07 06:16:37;;;;;;;10.77;2.60;;;30.30;55.60;;;;;;5049246;28;20548;-71
2024/01/07 06:19:04;;;;;;;14.05;2.97;;;30.40;54.70;;;;;;5054345;28;20187;-72
2024/01/07 06:21:32;;;;;;;14.50;2.60;;;30.30;55.40;;;;;;5051604;28;20271;-73
2024/01/07 06:24:20;;;;;;;22.83;3.10;;;30.00;55.30;;;;;;5050921;28;20180;-71
2024/01/07 06:27:05;;;;;;;12.27;2.70;;;30.20;55.90;;;;;;5056231;28;20187;-73
2024/01/07 06:29:33;;;;;;;14.82;3.38;;;30.00;55.90;;;;;;5053820;28;20203;-71
2024/01/07 06:32:00;;;;;;;11.55;2.33;;;30.10;55.70;;;;;;5058608;28;20320;-71
2024/01/07 06:34:36;;;;;;;17.60;2.97;;;29.50;57.00;;;;;;5052599;28;20180;-71
2024/01/07 06:37:05;;;;;;;12.43;2.75;;;29.30;57.90;;;;;;5046638;28;20187;-70
2024/01/07 06:39:34;;;;;;;9.68;2.63;;;30.10;56.40;;;;;;5040298;28;20188;-73
2024/01/07 06:42:01;;;;;;;11.02;2.53;;;30.20;55.20;;;;;;5045768;28;20232;-70
2024/01/07 06:44:29;;;;;;;11.15;2.72;;;29.50;57.10;;;;;;5045520;28;20655;-71
2024/01/07 06:46:56;;;;;;;18.57;3.30;;;29.30;58.20;;;;;;5042470;28;20181;-70
2024/01/07 06:49:26;;;;;;;8.43;2.80;;;29.40;58.30;;;;;;5047404;28;20243;-71
2024/01/07 06:51:54;;;;;;;12.93;3.07;;;29.50;56.90;;;;;;5049626;28;20190;-72
2024/01/07 06:54:21;;;;;;;12.55;2.80;;;29.80;56.50;;;;;;5049096;28;20192;-71
2024/01/07 06:56:49;;;;;;;14.43;2.90;;;29.60;56.10;;;;;;5039909;28;20589;-72
2024/01/07 06:59:16;;;;;;;16.13;3.07;;;29.30;57.80;;;;;;5049138;28;20237;-74
2024/01/07 07:01:43;;;;;;;10.17;2.37;;;29.00;58.40;;;;;;5044757;28;20177;-74
2024/01/07 07:04:11;;;;;;;14.63;3.57;;;28.40;60.10;;;;;;5029058;28;20199;-76
2024/01/07 07:06:38;;;;;;;11.17;2.47;;;27.80;61.40;;;;;;5039710;28;20308;-71
2024/01/07 07:09:05;;;;;;;22.37;3.03;;;28.20;60.90;;;;;;5041936;28;20219;-73
2024/01/07 07:11:33;;;;;;;15.47;2.60;;;28.30;59.70;;;;;;5036823;28;20212;-74
2024/01/07 07:14:00;;;;;;;16.87;3.30;;;29.00;58.80;;;;;;5045982;28;20190;-72
2024/01/07 07:16:28;;;;;;;15.37;3.20;;;29.40;56.50;;;;;;5047090;28;20179;-71
2024/01/07 07:18:55;;;;;;;13.03;2.60;;;29.40;56.30;;;;;;5050370;28;20742;-73
2024/01/07 07:21:23;;;;;;;15.20;2.90;;;29.20;56.40;;;;;;5050835;28;20236;-72
2024/01/07 07:23:50;;;;;;;12.97;2.77;;;28.80;57.00;;;;;;5054844;28;20180;-71
2024/01/07 07:26:17;;;;;;;13.37;2.10;;;28.60;57.40;;;;;;5055670;28;20186;-72
2024/01/07 07:28:45;;;;;;;13.20;2.83;;;28.10;59.10;;;;;;5045907;28;20229;-72
2024/01/07 07:31:12;;;;;;;12.90;2.63;;;27.30;60.30;;;;;;5052464;28;20180;-72
2024/01/07 07:33:43;;;;;;;18.13;3.03;;;27.60;60.90;;;;;;5052605;28;20298;-71
2024/01/07 07:36:10;;;;;;;14.47;3.17;;;27.30;62.00;;;;;;5052742;28;20190;-71
2024/01/07 07:38:37;;;;;;;15.57;3.17;;;27.40;62.10;;;;;;5051938;28;20267;-70
2024/01/07 07:41:05;;;;;;;16.97;3.67;;;27.40;62.00;;;;;;5047905;28;20232;-71
2024/01/07 07:43:32;;;;;;;20.73;3.60;;;27.10;63.00;;;;;;5058342;28;20206;-71
2024/01/07 07:46:01;;;;;;;13.87;3.23;;;26.90;63.90;;;;;;5060942;28;20710;-72
2024/01/07 07:48:28;;;;;;;14.53;3.47;;;26.90;64.50;;;;;;5054331;28;20650;-73
2024/01/07 07:50:56;;;;;;;13.80;2.97;;;26.70;65.20;;;;;;5046701;28;20554;-71
2024/01/07 07:53:23;;;;;;;16.23;2.77;;;26.80;65.00;;;;;;5055407;28;20182;-72
2024/01/07 07:55:51;;;;;;;20.37;3.33;;;26.60;65.40;;;;;;5045958;28;20176;-72
2024/01/07 07:58:18;;;;;;;16.73;3.37;;;26.60;65.80;;;;;;5060403;28;20188;-72
2024/01/07 08:00:45;;;;;;;14.03;3.47;;;26.40;65.90;;;;;;5055351;28;20245;-69
2024/01/07 08:03:12;;;;;;;12.50;3.20;;;26.40;66.30;;;;;;5057601;28;20224;-70
2024/01/07 08:05:41;;;;;;;15.97;2.90;;;26.30;66.50;;;;;;5054152;28;20183;-72
2024/01/07 08:08:09;;;;;;;14.03;3.13;;;26.30;67.20;;;;;;5058627;28;20191;-71
2024/01/07 08:10:36;;;;;;;14.23;3.30;;;26.20;67.60;;;;;;5057670;28;20279;-70
2024/01/07 08:13:03;;;;;;;15.23;3.57;;;26.10;67.90;;;;;;5059813;28;20180;-71
2024/01/07 08:15:31;;;;;;;15.37;3.47;;;25.90;68.50;;;;;;5061085;28;20742;-72
2024/01/07 08:17:58;;;;;;;12.33;2.47;;;25.80;68.70;;;;;;5057434;28;20262;-72
2024/01/07 08:20:25;;;;;;;19.67;3.70;;;25.60;69.50;;;;;;5057741;28;20186;-72
2024/01/07 08:22:52;;;;;;;18.70;3.67;;;25.50;69.80;;;;;;5059117;28;20184;-71
2024/01/07 08:25:20;;;;;;;18.10;3.77;;;25.40;70.50;;;;;;5057696;28;20543;-72
2024/01/07 08:27:47;;;;;;;15.63;3.57;;;25.40;70.40;;;;;;5060149;28;20184;-71
2024/01/07 08:30:15;;;;;;;12.93;3.00;;;25.40;70.00;;;;;;5060092;28;20243;-72
2024/01/07 08:32:42;;;;;;;21.60;4.07;;;25.30;69.90;;;;;;5063546;28;20650;-72
2024/01/07 08:35:10;;;;;;;20.60;3.83;;;25.30;70.30;;;;;;5054317;28;20187;-72
2024/01/07 08:37:37;;;;;;;18.57;3.47;;;25.10;70.80;;;;;;5060056;28;20183;-71
2024/01/07 08:40:05;;;;;;;21.63;3.50;;;25.10;70.80;;;;;;5062900;28;20184;-70
2024/01/07 08:42:33;;;;;;;18.53;3.67;;;25.00;70.80;;;;;;5058855;28;20235;-70
2024/01/07 08:45:00;;;;;;;16.37;3.40;;;25.00;70.90;;;;;;5055013;28;20267;-71
2024/01/07 08:47:28;;;;;;;21.97;3.80;;;24.90;71.10;;;;;;5055941;28;20610;-70
2024/01/07 08:49:55;;;;;;;24.37;4.67;;;24.80;71.00;;;;;;5055411;28;20246;-69
2024/01/07 08:52:23;;;;;;;15.23;3.20;;;24.80;71.00;;;;;;5054047;28;20267;-71
2024/01/07 08:54:50;;;;;;;20.63;3.80;;;24.80;71.10;;;;;;5053813;28;20180;-70
2024/01/07 08:57:17;;;;;;;14.63;3.20;;;24.70;71.30;;;;;;5058920;28;20207;-69
2024/01/07 08:59:44;;;;;;;17.37;3.87;;;24.60;71.30;;;;;;5062028;28;20213;-70
2024/01/07 09:02:12;;;;;;;23.37;4.03;;;24.70;71.70;;;;;;5055324;28;20184;-70
2024/01/07 09:04:39;;;;;;;16.43;3.53;;;24.60;72.10;;;;;;5042267;28;20180;-69
2024/01/07 09:07:06;;;;;;;15.33;3.10;;;24.60;72.10;;;;;;5051804;28;20211;-71
2024/01/07 09:09:34;;;;;;;13.83;3.23;;;24.60;72.30;;;;;;5052834;28;20218;-70
2024/01/07 09:12:03;;;;;;;20.13;3.53;;;24.60;72.60;;;;;;5049208;28;20192;-70
2024/01/07 09:14:31;;;;;;;20.07;3.23;;;24.50;72.40;;;;;;5048590;28;20191;-71
2024/01/07 09:16:58;;;;;;;18.40;3.67;;;24.40;72.80;;;;;;5052658;28;20222;-72
2024/01/07 09:19:26;;;;;;;16.63;3.67;;;24.50;73.20;;;;;;5053293;28;20348;-71
2024/01/07 09:21:53;;;;;;;12.00;3.13;;;24.50;73.40;;;;;;5053417;28;20201;-70
2024/01/07 09:24:20;;;;;;;21.63;3.50;;;24.30;73.60;;;;;;5053720;28;20183;-70
2024/01/07 09:26:48;;;;;;;20.00;3.63;;;24.30;73.90;;;;;;5052908;28;20184;-72
2024/01/07 09:29:15;;;;;;;24.43;3.80;;;24.30;74.00;;;;;;5047453;28;20235;-71
2024/01/07 09:31:42;;;;;;;18.73;3.87;;;24.30;74.20;;;;;;5049337;28;20177;-73
2024/01/07 09:34:09;;;;;;;17.73;2.83;;;24.30;74.40;;;;;;5050313;28;20267;-71
2024/01/07 09:36:37;;;;;;;25.90;4.13;;;24.30;74.70;;;;;;5055325;28;20279;-73
2024/01/07 09:39:07;;;;;;;17.93;3.53;;;24.30;74.90;;;;;;5047512;28;20697;-70
2024/01/07 09:41:34;;;;;;;23.70;3.37;;;24.20;75.10;;;;;;5055229;28;20234;-72
2024/01/07 09:44:02;;;;;;;17.40;2.77;;;24.30;75.40;;;;;;5045367;28;20192;-71
2024/01/07 09:46:32;;;;;;;22.00;3.77;;;24.20;75.50;;;;;;5052449;28;20191;-70
2024/01/07 09:48:59;;;;;;;18.80;3.47;;;24.20;75.80;;;;;;5039769;28;20746;-71
2024/01/07 09:51:29;;;;;;;19.87;3.37;;;24.20;75.80;;;;;;5049668;28;20180;-70
2024/01/07 09:54:04;;;;;;;14.33;3.27;;;24.20;76.20;;;;;;5053088;28;20210;-69
2024/01/07 09:56:43;;;;;;;17.03;3.17;;;24.10;76.00;;;;;;5056390;28;20579;-70
2024/01/07 09:59:11;;;;;;;17.43;3.73;;;24.10;76.20;;;;;;5046236;28;20238;-71
2024/01/07 10:01:39;;;;;;;24.00;4.27;;;24.10;76.20;;;;;;5056284;28;20188;-73
2024/01/07 10:04:06;;;;;;;17.23;3.83;;;24.10;76.40;;;;;;5057828;28;20639;-70
2024/01/07 10:06:33;;;;;;;23.90;3.67;;;24.10;76.40;;;;;;5045369;28;20236;-70
2024/01/07 10:09:01;;;;;;;15.90;3.27;;;24.10;76.30;;;;;;5054283;28;20223;-71
2024/01/07 10:11:28;;;;;;;18.27;3.73;;;24.10;76.20;;;;;;5058620;28;20184;-71
2024/01/07 10:13:55;;;;;;;22.50;3.73;;;24.10;76.20;;;;;;5051905;28;20565;-70
2024/01/07 10:16:23;;;;;;;20.73;3.90;;;24.10;76.10;;;;;;5055451;28;20241;-71
2024/01/07 10:18:50;;;;;;;15.10;3.37;;;24.10;76.20;;;;;;5053020;28;20172;-70
2024/01/07 10:21:17;;;;;;;25.77;3.40;;;24.00;76.40;;;;;;5053174;28;20187;-70
2024/01/07 10:23:45;;;;;;;19.27;3.83;;;24.10;76.50;;;;;;5058980;28;20183;-71
2024/01/07 10:26:12;;;;;;;26.60;4.60;;;24.10;76.50;;;;;;5058458;28;20194;-71
2024/01/07 10:28:40;;;;;;;21.73;4.20;;;24.00;76.60;;;;;;5043254;28;20211;-69
2024/01/07 10:31:08;;;;;;;18.47;3.60;;;24.00;76.60;;;;;;5057804;28;20241;-69
2024/01/07 10:33:35;;;;;;;26.93;4.77;;;24.00;76.60;;;;;;5047916;28;20729;-70
2024/01/07 10:36:05;;;;;;;21.37;3.40;;;24.00;76.60;;;;;;5052169;28;20187;-69
2024/01/07 10:38:37;;;;;;;20.10;3.90;;;24.00;76.70;;;;;;5053756;28;20180;-70
2024/01/07 10:41:07;;;;;;;19.30;4.00;;;24.00;76.80;;;;;;5053885;28;20258;-69
2024/01/07 10:43:39;;;;;;;22.27;3.73;;;24.00;76.90;;;;;;5051449;28;20184;-69
2024/01/07 10:46:07;;;;;;;19.43;4.17;;;24.00;77.00;;;;;;5057218;28;20286;-69
2024/01/07 10:48:39;;;;;;;27.43;4.07;;;23.90;77.00;;;;;;5045596;28;20757;-73
2024/01/07 10:51:07;;;;;;;23.80;4.50;;;23.90;77.10;;;;;;5055247;28;20189;-70
2024/01/07 10:53:37;;;;;;;20.97;3.47;;;24.00;77.30;;;;;;5050220;28;20177;-68
2024/01/07 10:56:08;;;;;;;20.00;3.97;;;23.90;77.50;;;;;;5053233;28;20182;-70
2024/01/07 10:58:37;;;;;;;20.60;4.13;;;23.90;77.50;;;;;;5058629;28;20180;-70
2024/01/07 11:01:06;;;;;;;19.23;3.83;;;23.90;77.70;;;;;;5056862;28;20223;-71
2024/01/07 11:03:55;;;;;;;19.23;3.53;;;23.90;77.90;;;;;;5049489;28;20188;-70
2024/01/07 11:06:34;;;;;;;26.00;3.60;;;23.80;78.00;;;;;;5060249;28;20186;-70
2024/01/07 11:09:36;;;;;;;19.23;4.03;;;23.90;77.90;;;;;;5049405;28;20330;-71
2024/01/07 11:12:04;;;;;;;27.53;3.97;;;23.80;78.10;;;;;;5017194;28;20199;-70
2024/01/07 11:14:45;;;;;;;20.63;3.77;;;23.80;78.10;;;;;;5062841;28;20184;-71
2024/01/07 11:17:15;;;;;;;15.97;4.00;;;23.80;78.10;;;;;;5055402;28;20230;-69
2024/01/07 11:19:52;;;;;;;21.83;3.73;;;23.80;78.00;;;;;;5059504;28;20180;-71
2024/01/07 11:22:29;;;;;;;26.40;3.97;;;23.80;77.80;;;;;;5057943;28;20537;-69
2024/01/07 11:24:58;;;;;;;19.67;3.90;;;23.80;77.80;;;;;;5051150;28;20210;-70
2024/01/07 11:27:31;;;;;;;18.80;3.70;;;23.80;77.70;;;;;;5058528;28;20206;-70
2024/01/07 11:29:59;;;;;;;18.77;3.60;;;23.80;77.70;;;;;;5052824;28;20227;-70
2024/01/07 11:32:30;;;;;;;22.30;3.73;;;23.80;77.20;;;;;;5061103;28;20175;-72
2024/01/07 11:34:59;;;;;;;18.40;3.40;;;23.80;77.30;;;;;;5057579;28;20184;-70
2024/01/07 11:37:27;;;;;;;27.47;4.40;;;23.80;77.20;;;;;;5060820;28;20201;-70
2024/01/07 11:40:00;;;;;;;16.37;3.20;;;23.80;76.90;;;;;;5055884;28;20184;-69
2024/01/07 11:42:27;;;;;;;23.00;3.83;;;23.80;76.80;;;;;;5059548;28;20228;-69
2024/01/07 11:44:56;;;;;;;18.00;3.40;;;23.80;77.00;;;;;;5052883;28;20188;-72
2024/01/07 11:47:27;;;;;;;24.03;4.80;;;23.80;77.10;;;;;;5057160;28;20267;-70
2024/01/07 11:49:55;;;;;;;24.10;3.63;;;23.80;76.80;;;;;;5057927;28;20688;-70
2024/01/07 11:52:45;;;;;;;16.37;3.27;;;23.80;77.00;;;;;;5059179;28;20203;-70
2024/01/07 11:55:13;;;;;;;23.67;4.07;;;23.80;77.10;;;;;;5063456;28;20179;-71
2024/01/07 11:57:43;;;;;;;20.57;4.17;;;23.70;77.50;;;;;;5064788;28;20179;-70
2024/01/07 12:00:11;;;;;;;16.37;3.03;;;23.70;77.60;;;;;;5052821;28;20184;-70
2024/01/07 12:02:38;;;;;;;19.03;3.50;;;23.70;77.50;;;;;;5045203;28;20199;-70
2024/01/07 12:05:06;;;;;;;14.97;3.40;;;23.70;77.10;;;;;;5056987;28;20191;-71
2024/01/07 12:07:36;;;;;;;16.50;3.67;;;23.70;77.40;;;;;;5056210;28;20183;-70
2024/01/07 12:10:07;;;;;;;17.93;3.53;;;23.70;77.30;;;;;;5060594;28;20223;-71
2024/01/07 12:12:35;;;;;;;20.60;4.17;;;23.60;77.30;;;;;;5054538;28;20185;-71
2024/01/07 12:15:06;;;;;;;17.93;3.13;;;23.60;77.40;;;;;;5059261;28;20191;-72
2024/01/07 12:17:33;;;;;;;23.10;3.73;;;23.60;77.60;;;;;;5059240;28;20180;-73
2024/01/07 12:20:08;;;;;;;15.60;3.20;;;23.60;77.70;;;;;;5051558;28;20191;-72
2024/01/07 12:22:44;;;;;;;25.30;4.33;;;23.50;77.60;;;;;;5041861;28;20184;-71
2024/01/07 12:25:11;;;;;;;17.97;3.13;;;23.60;77.70;;;;;;5058698;28;20183;-72
2024/01/07 12:27:42;;;;;;;20.47;3.60;;;23.50;77.70;;;;;;5055343;28;20187;-71
2024/01/07 12:30:10;;;;;;;21.33;3.77;;;23.50;77.80;;;;;;5050861;28;20219;-71
2024/01/07 12:32:37;;;;;;;26.97;3.73;;;23.50;77.70;;;;;;5051938;28;20641;-71
2024/01/07 12:35:08;;;;;;;17.23;3.73;;;23.50;77.80;;;;;;5039505;28;20198;-71
2024/01/07 12:37:39;;;;;;;23.53;3.43;;;23.50;77.80;;;;;;5055931;28;20542;-71
2024/01/07 12:40:10;;;;;;;19.23;3.50;;;23.50;77.80;;;;;;5057555;28;20184;-71
2024/01/07 12:42:45;;;;;;;18.93;3.80;;;23.40;77.80;;;;;;5042934;28;20582;-71
2024/01/07 12:45:14;;;;;;;17.33;3.27;;;23.40;77.90;;;;;;5031559;28;20664;-71